Time;durP1;ratioP1;P1;durP2;ratioP2;P2;SDS_P1;SDS_P2;PMS_P1;PMS_P2;Temp;Humidity;BMP_temperature;BMP_pressure;BME280_temperature;BME280_humidity;BME280_pressure;Samples;Min_cycle;Max_cycle;Signal;HPM_P1;HPM_P2
2023/02/08 00:00:24;;;;;;;38.25;21.23;;;2.00;99.90;;;;;;5014740;28;20304;-78
2023/02/08 00:02:50;;;;;;;37.83;21.15;;;2.00;99.90;;;;;;5027162;28;20214;-76
2023/02/08 00:05:17;;;;;;;36.08;21.73;;;1.90;99.90;;;;;;5030771;28;20628;-78
2023/02/08 00:07:42;;;;;;;43.35;23.85;;;1.90;99.90;;;;;;5031870;28;20184;-78
2023/02/08 00:10:09;;;;;;;40.80;22.67;;;1.80;99.90;;;;;;5063233;28;20237;-77
2023/02/08 00:12:36;;;;;;;47.80;24.38;;;1.70;99.90;;;;;;5033354;28;20180;-76
2023/02/08 00:15:02;;;;;;;43.20;22.58;;;1.70;99.90;;;;;;5035971;28;20620;-78
2023/02/08 00:17:28;;;;;;;37.08;22.77;;;1.60;99.90;;;;;;5045615;28;20194;-77
2023/02/08 00:19:54;;;;;;;42.58;23.30;;;1.60;99.90;;;;;;5030662;28;20615;-77
2023/02/08 00:22:19;;;;;;;38.40;22.13;;;1.60;99.90;;;;;;5031397;28;20220;-77
2023/02/08 00:24:45;;;;;;;37.33;22.10;;;1.50;99.90;;;;;;5030316;28;20198;-77
2023/02/08 00:27:11;;;;;;;41.80;23.67;;;1.50;99.90;;;;;;5030940;28;20188;-76
2023/02/08 00:29:36;;;;;;;38.03;23.38;;;1.40;99.90;;;;;;5031716;28;20187;-77
2023/02/08 00:32:03;;;;;;;49.70;26.33;;;1.40;99.90;;;;;;5031443;28;20648;-78
2023/02/08 00:34:29;;;;;;;41.28;24.08;;;1.40;99.90;;;;;;5029848;28;20674;-77
2023/02/08 00:36:54;;;;;;;49.63;25.08;;;1.30;99.90;;;;;;5022770;28;20279;-77
2023/02/08 00:39:20;;;;;;;44.03;24.42;;;1.40;99.90;;;;;;5034140;28;20195;-78
2023/02/08 00:41:46;;;;;;;45.00;22.65;;;1.30;99.90;;;;;;5031216;28;20184;-78
2023/02/08 00:44:12;;;;;;;48.95;24.55;;;1.30;99.90;;;;;;5031705;28;20180;-77
2023/02/08 00:46:38;;;;;;;44.42;23.13;;;1.30;99.90;;;;;;5029509;28;20213;-77
2023/02/08 00:49:04;;;;;;;45.65;25.10;;;1.30;99.90;;;;;;5031451;28;20349;-78
2023/02/08 00:51:30;;;;;;;43.67;21.77;;;1.30;99.90;;;;;;5031310;28;20188;-78
2023/02/08 00:53:55;;;;;;;50.83;24.30;;;1.20;99.90;;;;;;5030127;28;20195;-77
2023/02/08 00:56:22;;;;;;;42.72;23.65;;;1.20;99.90;;;;;;5031406;28;20176;-77
2023/02/08 00:58:47;;;;;;;43.78;25.13;;;1.20;99.90;;;;;;5030211;28;20192;-77
2023/02/08 01:01:13;;;;;;;37.78;22.15;;;1.10;99.90;;;;;;5029352;28;20184;-77
2023/02/08 01:03:42;;;;;;;42.78;22.98;;;1.20;99.90;;;;;;5017824;28;20694;-77
2023/02/08 01:06:12;;;;;;;40.92;22.27;;;1.10;99.90;;;;;;5032310;28;20663;-77
2023/02/08 01:08:37;;;;;;;36.13;20.08;;;1.10;99.90;;;;;;5028810;28;20283;-78
2023/02/08 01:11:05;;;;;;;39.33;20.92;;;1.10;99.90;;;;;;5025113;28;20266;-77
2023/02/08 01:13:31;;;;;;;37.55;21.73;;;1.10;99.90;;;;;;5011932;28;20284;-77
2023/02/08 01:16:06;;;;;;;38.70;22.05;;;1.10;99.90;;;;;;5029040;28;20267;-78
2023/02/08 01:18:32;;;;;;;37.97;21.70;;;1.00;99.90;;;;;;5045082;28;20176;-78
2023/02/08 01:21:10;;;;;;;38.40;22.58;;;1.10;99.90;;;;;;5031161;28;20203;-77
2023/02/08 01:23:38;;;;;;;45.78;24.77;;;1.00;99.90;;;;;;5029884;28;20196;-77
2023/02/08 01:26:05;;;;;;;39.08;21.27;;;1.00;99.90;;;;;;5025322;28;20192;-77
2023/02/08 01:28:31;;;;;;;40.10;21.33;;;1.00;99.90;;;;;;5030985;28;20263;-77
2023/02/08 01:30:57;;;;;;;44.83;24.00;;;1.00;99.90;;;;;;5034862;28;20180;-77
2023/02/08 01:33:23;;;;;;;40.25;22.52;;;1.00;99.90;;;;;;5034888;28;20191;-78
2023/02/08 01:35:51;;;;;;;39.97;21.73;;;1.00;99.90;;;;;;5034548;28;20202;-78
2023/02/08 01:38:17;;;;;;;42.15;22.10;;;1.00;99.90;;;;;;5035699;28;20309;-80
2023/02/08 01:40:43;;;;;;;40.67;20.98;;;1.00;99.90;;;;;;5047402;28;20732;-77
2023/02/08 01:43:25;;;;;;;36.88;20.25;;;1.10;99.90;;;;;;5014454;28;20285;-77
2023/02/08 01:45:51;;;;;;;37.10;20.58;;;1.00;99.90;;;;;;5023943;28;20676;-77
2023/02/08 01:48:33;;;;;;;36.53;20.05;;;1.00;99.90;;;;;;5031088;28;20279;-79
2023/02/08 01:51:22;;;;;;;39.95;20.15;;;1.00;99.90;;;;;;5014773;28;20184;-76
2023/02/08 01:53:51;;;;;;;41.20;20.90;;;1.00;99.90;;;;;;5019153;28;20207;-78
2023/02/08 01:56:25;;;;;;;40.28;20.83;;;1.00;99.90;;;;;;5026438;28;20235;-77
2023/02/08 01:58:57;;;;;;;35.55;20.80;;;1.10;99.90;;;;;;5048045;28;20675;-76
2023/02/08 02:01:25;;;;;;;37.08;19.75;;;1.10;99.90;;;;;;5033519;28;20195;-75
2023/02/08 02:03:51;;;;;;;37.40;20.25;;;1.10;99.90;;;;;;5031887;28;20786;-76
2023/02/08 02:06:21;;;;;;;36.88;20.45;;;1.00;99.90;;;;;;5050199;28;20263;-76
2023/02/08 02:08:55;;;;;;;41.55;21.45;;;1.00;99.90;;;;;;5029893;28;20203;-76
2023/02/08 02:11:20;;;;;;;35.15;19.77;;;0.90;99.90;;;;;;5014446;28;20568;-76
2023/02/08 02:13:49;;;;;;;40.13;23.15;;;0.90;99.90;;;;;;5028536;28;20241;-75
2023/02/08 02:16:16;;;;;;;40.58;21.30;;;0.90;99.90;;;;;;5033609;28;20575;-76
2023/02/08 02:18:42;;;;;;;42.00;24.85;;;0.80;99.90;;;;;;5032909;28;20184;-76
2023/02/08 02:21:29;;;;;;;35.85;21.77;;;0.80;99.90;;;;;;5022979;28;20211;-77
2023/02/08 02:24:10;;;;;;;39.53;21.92;;;0.80;99.90;;;;;;5037020;28;20667;-75
2023/02/08 02:27:06;;;;;;;38.03;21.05;;;0.70;99.90;;;;;;5034774;28;20201;-75
2023/02/08 02:29:45;;;;;;;43.60;21.98;;;0.70;99.90;;;;;;5032105;28;20180;-76
2023/02/08 02:32:13;;;;;;;37.13;20.23;;;0.70;99.90;;;;;;5033459;28;20199;-75
2023/02/08 02:34:59;;;;;;;36.00;20.67;;;0.70;99.90;;;;;;5027172;28;20270;-75
2023/02/08 02:37:54;;;;;;;36.90;20.23;;;0.70;99.90;;;;;;5015348;28;20164;-76
2023/02/08 02:40:33;;;;;;;39.58;21.23;;;0.70;99.90;;;;;;5019529;28;20172;-76
2023/02/08 02:43:41;;;;;;;36.25;20.50;;;0.60;99.90;;;;;;5035264;28;20219;-78
2023/02/08 02:46:23;;;;;;;38.13;19.85;;;0.70;99.90;;;;;;5047915;28;20180;-77
2023/02/08 02:49:08;;;;;;;36.80;20.60;;;0.60;99.90;;;;;;5029507;28;20191;-78
2023/02/08 02:51:45;;;;;;;37.75;20.40;;;0.50;99.90;;;;;;5033506;28;20275;-78
2023/02/08 02:54:17;;;;;;;37.33;20.65;;;0.50;99.90;;;;;;5034687;28;20233;-74
2023/02/08 02:56:49;;;;;;;34.80;19.92;;;0.50;99.90;;;;;;5017822;28;20713;-78
2023/02/08 02:59:17;;;;;;;37.83;21.30;;;0.50;99.90;;;;;;5034042;28;20226;-75
2023/02/08 03:01:45;;;;;;;44.05;20.38;;;0.60;99.90;;;;;;5033232;28;20184;-76
2023/02/08 03:04:38;;;;;;;37.72;20.48;;;0.50;99.90;;;;;;5031910;28;20693;-76
2023/02/08 03:07:19;;;;;;;37.67;20.27;;;0.50;99.90;;;;;;5034499;28;20634;-76
2023/02/08 03:10:04;;;;;;;39.72;20.80;;;0.50;99.90;;;;;;5031666;28;20196;-76
2023/02/08 03:12:44;;;;;;;36.72;20.17;;;0.50;99.90;;;;;;5032771;28;20180;-76
2023/02/08 03:15:35;;;;;;;33.15;18.52;;;0.50;99.90;;;;;;5033820;28;20187;-76
2023/02/08 03:18:34;;;;;;;35.78;20.10;;;0.50;99.90;;;;;;5030101;28;20230;-76
2023/02/08 03:21:05;;;;;;;36.58;20.25;;;0.60;99.90;;;;;;5016091;28;20165;-77
2023/02/08 03:23:45;;;;;;;35.15;18.95;;;0.50;99.90;;;;;;5031153;28;20219;-77
2023/02/08 03:26:17;;;;;;;36.15;20.30;;;0.50;99.90;;;;;;5014337;28;20160;-76
2023/02/08 03:29:04;;;;;;;37.35;19.60;;;0.60;99.90;;;;;;5015768;28;20277;-79
2023/02/08 03:31:56;;;;;;;33.90;19.70;;;0.60;99.90;;;;;;5031354;28;20290;-76
2023/02/08 03:34:28;;;;;;;38.22;20.33;;;0.60;99.90;;;;;;5028623;28;20283;-76
2023/02/08 03:37:00;;;;;;;34.85;19.67;;;0.60;99.90;;;;;;5032886;28;20282;-77
2023/02/08 03:39:29;;;;;;;38.83;19.85;;;0.70;99.90;;;;;;5036044;28;20604;-76
2023/02/08 03:41:59;;;;;;;37.00;20.70;;;0.70;99.90;;;;;;5031370;28;20309;-77
2023/02/08 03:44:31;;;;;;;41.33;21.70;;;0.60;99.90;;;;;;5031268;28;20493;-77
2023/02/08 03:47:08;;;;;;;36.15;20.38;;;0.70;99.90;;;;;;5032603;28;20183;-75
2023/02/08 03:49:36;;;;;;;37.95;21.00;;;0.80;99.90;;;;;;5031564;28;20244;-77
2023/02/08 03:52:07;;;;;;;38.13;21.80;;;0.80;99.90;;;;;;5030089;28;20186;-76
2023/02/08 03:54:38;;;;;;;40.53;22.13;;;0.80;99.90;;;;;;5032185;28;20184;-76
2023/02/08 03:57:20;;;;;;;36.90;21.42;;;0.70;99.90;;;;;;5032858;28;20192;-76
2023/02/08 03:59:56;;;;;;;35.95;20.05;;;0.70;99.90;;;;;;5032791;28;20271;-77
2023/02/08 04:02:25;;;;;;;34.92;20.52;;;0.70;99.90;;;;;;5031689;28;20296;-77
2023/02/08 04:04:52;;;;;;;37.72;21.05;;;0.60;99.90;;;;;;5032501;28;20210;-77
2023/02/08 04:07:18;;;;;;;41.78;21.88;;;0.50;99.90;;;;;;5033107;28;20188;-77
2023/02/08 04:09:44;;;;;;;35.65;20.85;;;0.50;99.90;;;;;;5031986;28;20192;-77
2023/02/08 04:12:10;;;;;;;38.28;23.13;;;0.50;99.90;;;;;;5032450;28;20632;-78
2023/02/08 04:14:36;;;;;;;38.17;21.30;;;0.40;99.90;;;;;;5032641;28;20192;-78
2023/02/08 04:17:02;;;;;;;36.53;20.02;;;0.40;99.90;;;;;;5031136;28;20619;-77
2023/02/08 04:19:28;;;;;;;37.80;19.75;;;0.40;99.90;;;;;;5010618;28;20189;-77
2023/02/08 04:21:53;;;;;;;35.40;19.90;;;0.40;99.90;;;;;;5012044;28;20590;-76
2023/02/08 04:24:19;;;;;;;32.60;19.10;;;0.50;99.90;;;;;;5021884;28;20278;-76
2023/02/08 04:26:46;;;;;;;38.33;19.88;;;0.40;99.90;;;;;;5031886;28;20556;-77
2023/02/08 04:29:12;;;;;;;34.67;20.20;;;0.40;99.90;;;;;;5031225;28;20219;-76
2023/02/08 04:31:37;;;;;;;40.35;20.23;;;0.40;99.90;;;;;;5031623;28;20180;-76
2023/02/08 04:34:03;;;;;;;35.55;19.02;;;0.50;99.90;;;;;;5031992;28;20284;-75
2023/02/08 04:36:29;;;;;;;34.53;19.90;;;0.40;99.90;;;;;;5031447;28;20183;-79
2023/02/08 04:38:55;;;;;;;36.83;20.85;;;0.50;99.90;;;;;;5014490;28;20196;-78
2023/02/08 04:41:21;;;;;;;35.88;20.52;;;0.50;99.90;;;;;;5028456;28;20192;-76
2023/02/08 04:43:46;;;;;;;36.28;21.10;;;0.50;99.90;;;;;;5031591;28;20259;-77
2023/02/08 04:46:12;;;;;;;41.28;21.02;;;0.50;99.90;;;;;;5029498;28;20697;-77
2023/02/08 04:48:38;;;;;;;38.53;19.77;;;0.50;99.90;;;;;;5039488;28;20184;-77
2023/02/08 04:51:04;;;;;;;37.15;20.75;;;0.40;99.90;;;;;;5042167;28;20553;-76
2023/02/08 04:53:29;;;;;;;37.63;20.95;;;0.40;99.90;;;;;;5040642;28;20317;-77
2023/02/08 04:55:55;;;;;;;37.88;21.75;;;0.40;99.90;;;;;;5021648;28;20663;-75
2023/02/08 04:58:22;;;;;;;35.35;21.00;;;0.40;99.90;;;;;;5047146;28;20181;-78
2023/02/08 05:00:47;;;;;;;38.58;20.42;;;0.30;99.90;;;;;;5024241;28;20184;-79
2023/02/08 05:03:13;;;;;;;39.80;21.88;;;0.40;99.90;;;;;;5032643;28;20215;-77
2023/02/08 05:05:40;;;;;;;38.25;21.67;;;0.40;99.90;;;;;;5026061;28;20528;-75
2023/02/08 05:08:06;;;;;;;39.35;21.23;;;0.30;99.90;;;;;;5035967;28;20271;-77
2023/02/08 05:10:32;;;;;;;36.88;21.45;;;0.30;99.90;;;;;;5034528;28;20242;-76
2023/02/08 05:12:58;;;;;;;41.45;23.25;;;0.30;99.90;;;;;;5036089;28;20188;-75
2023/02/08 05:15:23;;;;;;;42.92;22.73;;;0.30;99.90;;;;;;5031533;28;20184;-75
2023/02/08 05:17:49;;;;;;;44.22;26.13;;;0.30;99.90;;;;;;5030147;28;20537;-75
2023/02/08 05:20:15;;;;;;;39.85;21.52;;;0.30;99.90;;;;;;5034514;28;20207;-76
2023/02/08 05:22:41;;;;;;;43.08;23.55;;;0.20;99.90;;;;;;5034786;28;20612;-76
2023/02/08 05:25:07;;;;;;;42.67;24.02;;;0.20;99.90;;;;;;5035225;28;20196;-77
2023/02/08 05:27:34;;;;;;;41.67;24.60;;;0.20;99.90;;;;;;5034314;28;20184;-75
2023/02/08 05:30:00;;;;;;;41.97;25.83;;;0.10;99.90;;;;;;5022352;28;20188;-77
2023/02/08 05:32:27;;;;;;;42.78;24.70;;;0.10;99.90;;;;;;5016290;28;20216;-76
2023/02/08 05:34:53;;;;;;;42.65;23.63;;;0.10;99.90;;;;;;5033022;28;20252;-75
2023/02/08 05:37:18;;;;;;;50.15;27.85;;;0.00;99.90;;;;;;5008074;28;20185;-77
2023/02/08 05:39:44;;;;;;;45.80;24.58;;;0.00;99.90;;;;;;5033531;28;20191;-76
2023/02/08 05:42:10;;;;;;;46.25;26.65;;;0.00;99.90;;;;;;5035879;28;20264;-75
2023/02/08 05:44:35;;;;;;;40.03;23.30;;;-0.10;99.90;;;;;;5033998;28;20219;-76
2023/02/08 05:47:02;;;;;;;45.78;26.20;;;-0.10;99.90;;;;;;5033199;28;21967;-76
2023/02/08 05:49:28;;;;;;;43.55;25.55;;;-0.10;99.90;;;;;;5032922;28;20241;-76
2023/02/08 05:51:54;;;;;;;46.33;24.48;;;-0.10;99.90;;;;;;5017247;28;20632;-76
2023/02/08 05:54:20;;;;;;;44.88;24.70;;;-0.10;99.90;;;;;;5034101;28;20629;-76
2023/02/08 05:56:45;;;;;;;38.67;22.30;;;-0.10;99.90;;;;;;5033158;28;20655;-76
2023/02/08 05:59:11;;;;;;;38.35;21.50;;;-0.10;99.90;;;;;;5025363;28;20624;-76
2023/02/08 06:01:37;;;;;;;42.33;23.55;;;-0.10;99.90;;;;;;5032527;28;21709;-76
2023/02/08 06:04:03;;;;;;;51.58;28.75;;;-0.10;99.90;;;;;;5034705;28;20620;-76
2023/02/08 06:06:28;;;;;;;60.27;33.67;;;-0.20;99.90;;;;;;5033984;28;20184;-77
2023/02/08 06:08:54;;;;;;;57.45;32.78;;;-0.20;99.90;;;;;;5035923;28;20648;-78
2023/02/08 06:11:20;;;;;;;50.17;27.38;;;-0.20;99.90;;;;;;5034104;28;20188;-77
2023/02/08 06:13:46;;;;;;;48.88;26.23;;;-0.20;99.90;;;;;;5033023;28;20194;-77
2023/02/08 06:16:13;;;;;;;54.08;29.85;;;-0.20;99.90;;;;;;5032171;28;20180;-76
2023/02/08 06:18:39;;;;;;;48.50;24.83;;;-0.20;99.90;;;;;;5032878;28;20208;-80
2023/02/08 06:21:05;;;;;;;45.22;24.63;;;-0.20;99.90;;;;;;5033387;28;20218;-76
2023/02/08 06:23:31;;;;;;;39.95;22.42;;;-0.30;99.90;;;;;;5033713;28;20207;-78
2023/02/08 06:25:57;;;;;;;42.97;23.57;;;-0.30;99.90;;;;;;5035143;28;20283;-76
2023/02/08 06:28:23;;;;;;;44.60;23.87;;;-0.30;99.90;;;;;;5015486;28;20266;-79
2023/02/08 06:30:50;;;;;;;46.60;25.20;;;-0.30;99.90;;;;;;5031103;28;20241;-76
2023/02/08 06:33:16;;;;;;;44.45;23.52;;;-0.30;99.90;;;;;;5034148;28;20279;-76
2023/02/08 06:35:46;;;;;;;46.03;25.17;;;-0.20;99.90;;;;;;5065711;28;20283;-76
2023/02/08 06:38:13;;;;;;;46.03;25.40;;;-0.30;99.90;;;;;;5037437;28;20184;-76
2023/02/08 06:40:38;;;;;;;52.43;28.30;;;-0.30;99.90;;;;;;5032373;28;20226;-79
2023/02/08 06:43:04;;;;;;;59.20;29.77;;;-0.30;99.90;;;;;;5033668;28;20224;-78
2023/02/08 06:45:30;;;;;;;50.53;28.40;;;-0.30;99.90;;;;;;5028702;28;20634;-77
2023/02/08 06:47:56;;;;;;;62.50;31.10;;;-0.30;99.90;;;;;;5023591;28;20456;-77
2023/02/08 06:50:21;;;;;;;62.85;32.50;;;-0.30;99.90;;;;;;5031353;28;20207;-80
2023/02/08 06:52:47;;;;;;;61.58;33.45;;;-0.30;99.90;;;;;;5030364;28;20542;-77
2023/02/08 06:55:13;;;;;;;53.33;29.25;;;-0.30;99.90;;;;;;5029648;28;20266;-78
2023/02/08 06:57:39;;;;;;;55.45;29.75;;;-0.40;99.90;;;;;;5042468;28;20180;-78
2023/02/08 07:00:05;;;;;;;55.47;29.83;;;-0.40;99.90;;;;;;5036739;28;20192;-76
2023/02/08 07:02:32;;;;;;;61.43;31.73;;;-0.40;99.90;;;;;;5033039;28;20215;-75
2023/02/08 07:04:57;;;;;;;60.78;33.13;;;-0.40;99.90;;;;;;5031972;28;20556;-75
2023/02/08 07:07:23;;;;;;;46.80;25.20;;;-0.40;99.90;;;;;;5032305;28;20194;-76
2023/02/08 07:09:49;;;;;;;51.00;26.05;;;-0.40;99.90;;;;;;5032325;28;20187;-76
2023/02/08 07:12:15;;;;;;;43.40;23.97;;;-0.40;99.90;;;;;;5033133;28;20176;-75
2023/02/08 07:14:42;;;;;;;42.97;23.37;;;-0.40;99.90;;;;;;5029936;28;20662;-75
2023/02/08 07:17:09;;;;;;;42.40;22.43;;;-0.40;99.90;;;;;;5031492;28;20218;-78
2023/02/08 07:19:35;;;;;;;50.27;23.47;;;-0.40;99.90;;;;;;5031975;28;20551;-76
2023/02/08 07:22:06;;;;;;;43.33;22.23;;;-0.40;99.90;;;;;;5049464;28;20247;-76
2023/02/08 07:24:37;;;;;;;48.43;24.37;;;-0.50;99.90;;;;;;5032550;28;20176;-77
2023/02/08 07:27:05;;;;;;;45.33;24.30;;;-0.40;99.90;;;;;;5033208;28;20161;-76
2023/02/08 07:29:32;;;;;;;49.33;26.70;;;-0.50;99.90;;;;;;5064592;28;20599;-77
2023/02/08 07:31:59;;;;;;;48.33;25.50;;;-0.40;99.90;;;;;;5031547;28;20184;-76
2023/02/08 07:34:27;;;;;;;57.27;28.37;;;-0.40;99.90;;;;;;5031762;28;20187;-81
2023/02/08 07:36:53;;;;;;;56.07;29.13;;;-0.40;99.90;;;;;;5028657;28;20185;-77
2023/02/08 07:39:18;;;;;;;52.50;27.67;;;-0.40;99.90;;;;;;5026946;28;20644;-76
2023/02/08 07:41:44;;;;;;;51.23;23.20;;;-0.40;99.90;;;;;;5033716;28;20388;-76
2023/02/08 07:44:10;;;;;;;43.17;22.13;;;-0.40;99.90;;;;;;5029464;28;20650;-76
2023/02/08 07:46:36;;;;;;;47.27;24.90;;;-0.40;99.90;;;;;;5031277;28;20192;-77
2023/02/08 07:49:02;;;;;;;45.03;23.13;;;-0.40;99.90;;;;;;5031755;28;20275;-77
2023/02/08 07:51:27;;;;;;;45.47;23.30;;;-0.40;99.90;;;;;;5029856;28;20194;-76
2023/02/08 07:53:53;;;;;;;46.72;22.00;;;-0.30;99.90;;;;;;5039032;28;20180;-76
2023/02/08 07:56:19;;;;;;;39.00;17.90;;;-0.30;99.90;;;;;;5031821;28;20562;-77
2023/02/08 07:58:44;;;;;;;42.40;21.97;;;-0.20;99.90;;;;;;5021585;28;20188;-76
2023/02/08 08:01:10;;;;;;;46.63;22.20;;;-0.20;99.90;;;;;;5031330;28;20184;-78
2023/02/08 08:03:36;;;;;;;45.13;23.15;;;-0.10;99.90;;;;;;5031046;28;20216;-77
2023/02/08 08:06:02;;;;;;;40.22;21.70;;;0.00;99.90;;;;;;5027883;28;20612;-81
2023/02/08 08:08:27;;;;;;;41.08;20.90;;;0.20;99.90;;;;;;5028794;28;20728;-77
2023/02/08 08:10:56;;;;;;;42.47;21.73;;;0.50;99.90;;;;;;5027633;28;20179;-77
2023/02/08 08:13:22;;;;;;;43.75;22.35;;;0.80;99.90;;;;;;5014477;28;20188;-78
2023/02/08 08:15:48;;;;;;;44.05;22.17;;;1.00;99.90;;;;;;5029269;28;20184;-78
2023/02/08 08:18:14;;;;;;;38.05;21.58;;;1.30;99.90;;;;;;5061332;28;20632;-78
2023/02/08 08:20:39;;;;;;;41.90;24.52;;;1.60;99.90;;;;;;5027939;28;20644;-77
2023/02/08 08:23:05;;;;;;;37.85;21.33;;;1.90;99.90;;;;;;5032836;28;20224;-78
2023/02/08 08:25:31;;;;;;;39.17;23.65;;;2.10;99.90;;;;;;5012843;28;20184;-77
2023/02/08 08:27:57;;;;;;;37.60;23.00;;;2.30;99.90;;;;;;5032600;28;20283;-80
2023/02/08 08:30:23;;;;;;;39.95;22.95;;;2.50;99.90;;;;;;5046410;28;20660;-76
2023/02/08 08:32:49;;;;;;;42.00;23.02;;;2.50;99.90;;;;;;5031539;28;20192;-77
2023/02/08 08:35:14;;;;;;;39.58;22.58;;;2.60;99.90;;;;;;5025221;28;20190;-76
2023/02/08 08:37:40;;;;;;;38.40;23.08;;;2.60;99.90;;;;;;5022669;28;20616;-75
2023/02/08 08:40:07;;;;;;;40.53;22.75;;;2.60;99.90;;;;;;5047933;28;20198;-77
2023/02/08 08:42:34;;;;;;;35.53;22.10;;;2.80;99.90;;;;;;5030850;28;20346;-78
2023/02/08 08:45:00;;;;;;;38.30;23.40;;;2.90;99.90;;;;;;5030470;28;20187;-76
2023/02/08 08:47:25;;;;;;;41.58;22.77;;;2.90;99.90;;;;;;5030638;28;20192;-76
2023/02/08 08:49:51;;;;;;;41.47;22.10;;;3.10;99.90;;;;;;5025691;28;20196;-76
2023/02/08 08:52:18;;;;;;;40.78;23.40;;;3.40;99.90;;;;;;5018857;28;20577;-77
2023/02/08 08:54:43;;;;;;;40.72;23.17;;;3.70;99.90;;;;;;5030207;28;20188;-78
2023/02/08 08:57:10;;;;;;;44.33;22.17;;;4.00;99.90;;;;;;5061852;28;20180;-77
2023/02/08 08:59:36;;;;;;;39.65;23.55;;;4.40;99.90;;;;;;5031354;28;20254;-76
2023/02/08 09:02:01;;;;;;;41.15;24.42;;;4.80;99.90;;;;;;5015496;28;20643;-75
2023/02/08 09:04:27;;;;;;;44.10;25.50;;;5.10;99.90;;;;;;5030182;28;20195;-77
2023/02/08 09:06:53;;;;;;;39.80;23.17;;;5.40;99.90;;;;;;5045647;28;20214;-76
2023/02/08 09:09:20;;;;;;;38.97;23.40;;;5.60;99.90;;;;;;5043120;28;20291;-78
2023/02/08 09:11:47;;;;;;;33.05;22.35;;;5.80;99.90;;;;;;5030005;28;20178;-77
2023/02/08 09:14:13;;;;;;;37.13;21.27;;;6.10;99.90;;;;;;5042951;28;20200;-78
2023/02/08 09:16:46;;;;;;;38.22;22.45;;;6.40;99.90;;;;;;5005396;28;20202;-78
2023/02/08 09:19:13;;;;;;;31.90;21.20;;;6.50;99.90;;;;;;5028616;28;20191;-77
2023/02/08 09:21:39;;;;;;;37.08;22.35;;;6.70;99.90;;;;;;5032829;28;20266;-79
2023/02/08 09:24:05;;;;;;;36.83;22.92;;;6.90;99.90;;;;;;5030388;28;20307;-80
2023/02/08 09:26:31;;;;;;;39.00;22.20;;;7.10;99.90;;;;;;4996422;28;20177;-78
2023/02/08 09:28:57;;;;;;;38.88;22.00;;;7.40;99.90;;;;;;5016589;28;20571;-77
2023/02/08 09:31:31;;;;;;;38.75;22.60;;;7.50;99.90;;;;;;5030967;28;20283;-77
2023/02/08 09:33:59;;;;;;;33.53;22.55;;;7.50;99.90;;;;;;5027195;28;20191;-77
2023/02/08 09:36:28;;;;;;;34.17;21.75;;;7.60;99.90;;;;;;5032207;28;20195;-77
2023/02/08 09:38:59;;;;;;;36.42;22.38;;;7.70;99.90;;;;;;5027877;28;20180;-78
2023/02/08 09:41:45;;;;;;;38.35;22.02;;;7.80;99.90;;;;;;5029117;28;20207;-77
2023/02/08 09:44:32;;;;;;;35.60;21.85;;;8.10;99.90;;;;;;5017644;28;20277;-78
2023/02/08 09:47:01;;;;;;;31.75;21.48;;;8.30;99.90;;;;;;5031401;28;20176;-78
2023/02/08 09:49:33;;;;;;;39.03;22.42;;;8.50;99.90;;;;;;5013732;28;20184;-78
2023/02/08 09:52:04;;;;;;;35.63;22.90;;;8.40;99.90;;;;;;5030063;28;20212;-78
2023/02/08 09:54:30;;;;;;;39.75;23.70;;;8.50;99.90;;;;;;5024619;28;20184;-77
2023/02/08 09:57:00;;;;;;;32.75;20.75;;;8.70;99.90;;;;;;5032807;28;20264;-77
2023/02/08 09:59:29;;;;;;;39.78;20.50;;;8.80;99.90;;;;;;5029113;28;20259;-77
2023/02/08 10:02:10;;;;;;;28.92;17.73;;;9.00;99.90;;;;;;5017244;28;20272;-78
2023/02/08 10:05:02;;;;;;;30.70;18.15;;;9.20;99.80;;;;;;5033676;28;20195;-77
2023/02/08 10:07:29;;;;;;;27.73;16.80;;;9.30;99.00;;;;;;5027145;28;20177;-77
2023/02/08 10:09:59;;;;;;;27.65;15.85;;;9.50;97.70;;;;;;5027194;28;20643;-77
2023/02/08 10:12:38;;;;;;;24.60;15.32;;;9.50;96.80;;;;;;5033429;28;20192;-80
2023/02/08 10:15:28;;;;;;;24.50;15.35;;;9.60;96.00;;;;;;5031220;28;20182;-77
2023/02/08 10:18:19;;;;;;;26.35;15.32;;;9.60;95.50;;;;;;5032952;28;20275;-77
2023/02/08 10:20:47;;;;;;;23.95;14.88;;;9.70;94.70;;;;;;5024106;28;20592;-80
2023/02/08 10:23:31;;;;;;;23.85;15.18;;;9.80;94.30;;;;;;5026169;28;20277;-77
2023/02/08 10:26:12;;;;;;;21.90;15.05;;;9.80;93.60;;;;;;5030423;28;20191;-77
2023/02/08 10:28:38;;;;;;;20.50;13.82;;;9.80;92.40;;;;;;5032517;28;20184;-76
2023/02/08 10:31:16;;;;;;;20.33;13.63;;;9.80;92.00;;;;;;5033918;28;20248;-78
2023/02/08 10:33:51;;;;;;;21.90;13.77;;;9.80;90.60;;;;;;5032790;28;20187;-75
2023/02/08 10:36:20;;;;;;;20.75;13.80;;;9.80;90.90;;;;;;5034504;28;20163;-75
2023/02/08 10:38:50;;;;;;;20.30;13.95;;;9.80;89.10;;;;;;5031935;28;20186;-77
2023/02/08 10:41:36;;;;;;;23.45;14.60;;;9.80;88.40;;;;;;5035176;28;20184;-77
2023/02/08 10:44:11;;;;;;;19.10;13.43;;;9.70;87.50;;;;;;5026745;28;20240;-77
2023/02/08 10:46:46;;;;;;;22.65;13.95;;;9.80;87.90;;;;;;5033578;28;20187;-77
2023/02/08 10:49:39;;;;;;;21.20;13.65;;;9.90;86.90;;;;;;5032460;28;20206;-77
2023/02/08 10:52:05;;;;;;;22.48;13.77;;;10.00;85.90;;;;;;5033858;28;20230;-77
2023/02/08 10:54:33;;;;;;;19.92;12.98;;;10.10;84.60;;;;;;5031624;28;20198;-78
2023/02/08 10:57:11;;;;;;;21.08;13.23;;;10.20;82.80;;;;;;5034553;28;20176;-75
2023/02/08 10:59:53;;;;;;;21.25;12.50;;;10.30;82.10;;;;;;5033585;28;20183;-77
2023/02/08 11:02:31;;;;;;;20.85;11.30;;;10.60;81.10;;;;;;5035351;28;20215;-77
2023/02/08 11:05:02;;;;;;;19.15;11.27;;;10.90;78.40;;;;;;5032502;28;20194;-77
2023/02/08 11:07:28;;;;;;;19.77;12.43;;;11.10;75.90;;;;;;5042895;28;20620;-77
2023/02/08 11:10:01;;;;;;;19.05;11.63;;;11.10;73.20;;;;;;5041990;28;20736;-77
2023/02/08 11:12:27;;;;;;;17.67;11.80;;;11.10;71.90;;;;;;5015672;28;20197;-77
2023/02/08 11:14:53;;;;;;;18.58;11.48;;;11.10;72.80;;;;;;5026986;28;20184;-77
2023/02/08 11:17:31;;;;;;;19.90;12.32;;;11.10;71.00;;;;;;5031788;28;20568;-78
2023/02/08 11:19:58;;;;;;;17.58;11.98;;;11.10;69.80;;;;;;5030989;28;20222;-77
2023/02/08 11:22:26;;;;;;;18.35;10.95;;;11.20;70.10;;;;;;5015910;28;20191;-77
2023/02/08 11:25:05;;;;;;;16.52;11.30;;;11.30;68.60;;;;;;5031969;28;20188;-77
2023/02/08 11:27:38;;;;;;;14.88;10.02;;;11.50;67.70;;;;;;5033020;28;20175;-77
2023/02/08 11:30:12;;;;;;;16.95;11.00;;;11.50;65.50;;;;;;5033043;28;20184;-77
2023/02/08 11:32:43;;;;;;;15.00;10.02;;;11.50;65.80;;;;;;5033041;28;20175;-77
2023/02/08 11:35:32;;;;;;;16.98;10.60;;;11.60;64.00;;;;;;5031254;28;20183;-78
2023/02/08 11:37:59;;;;;;;15.00;10.45;;;11.70;63.70;;;;;;5029101;28;20260;-77
2023/02/08 11:40:30;;;;;;;15.43;10.18;;;11.80;62.60;;;;;;5035049;28;20628;-77
2023/02/08 11:42:57;;;;;;;17.05;10.68;;;11.90;62.20;;;;;;5047025;28;20374;-77
2023/02/08 11:45:34;;;;;;;15.77;10.27;;;12.10;62.00;;;;;;5031683;28;20192;-76
2023/02/08 11:48:03;;;;;;;17.88;10.93;;;12.30;60.00;;;;;;5032034;28;20301;-77
2023/02/08 11:50:33;;;;;;;16.08;9.63;;;12.10;57.80;;;;;;5020745;28;20188;-77
2023/02/08 11:53:02;;;;;;;15.18;9.10;;;12.10;57.70;;;;;;5046077;28;20176;-78
2023/02/08 11:55:31;;;;;;;13.68;8.85;;;12.10;57.80;;;;;;5030641;28;20644;-78
2023/02/08 11:58:22;;;;;;;12.60;8.75;;;12.00;56.30;;;;;;5033554;28;20176;-77
2023/02/08 12:01:01;;;;;;;13.70;8.07;;;11.90;56.40;;;;;;5032101;28;20191;-78
2023/02/08 12:03:32;;;;;;;12.82;8.02;;;12.00;56.10;;;;;;5032462;28;20279;-78
2023/02/08 12:06:03;;;;;;;12.80;7.78;;;12.10;55.80;;;;;;5032427;28;20322;-77
2023/02/08 12:08:38;;;;;;;11.25;7.47;;;12.20;54.30;;;;;;5029259;28;20543;-81
2023/02/08 12:11:22;;;;;;;10.77;7.32;;;12.20;53.50;;;;;;5045958;28;20184;-79
2023/02/08 12:14:04;;;;;;;15.25;7.80;;;12.40;54.00;;;;;;5030756;28;20843;-78
2023/02/08 12:16:51;;;;;;;12.23;8.23;;;12.60;53.70;;;;;;5031699;28;20714;-77
2023/02/08 12:19:38;;;;;;;13.82;8.70;;;12.70;52.90;;;;;;5027455;28;20187;-80
2023/02/08 12:22:15;;;;;;;12.00;8.23;;;12.70;52.50;;;;;;5033106;28;20187;-78
2023/02/08 12:24:47;;;;;;;14.40;8.48;;;12.80;53.10;;;;;;5031695;28;20195;-77
2023/02/08 12:27:36;;;;;;;13.30;8.30;;;12.80;52.10;;;;;;5032099;28;20207;-78
2023/02/08 12:30:26;;;;;;;10.70;7.80;;;12.80;52.60;;;;;;5028749;28;20186;-83
2023/02/08 12:33:00;;;;;;;10.65;7.93;;;12.90;53.00;;;;;;5061048;28;20195;-78
2023/02/08 12:35:49;;;;;;;12.38;7.93;;;12.90;51.80;;;;;;5027565;28;20188;-77
2023/02/08 12:41:31;;;;;;;12.52;8.02;;;13.20;51.80;;;;;;5030500;28;20188;-77
2023/02/08 12:44:22;;;;;;;10.43;7.60;;;13.20;51.50;;;;;;5031205;28;20255;-78
2023/02/08 12:46:56;;;;;;;11.40;7.63;;;13.20;50.60;;;;;;5031975;28;20180;-77
2023/02/08 12:49:42;;;;;;;11.93;7.50;;;13.00;50.50;;;;;;5031876;28;20179;-78
2023/02/08 12:52:30;;;;;;;13.38;7.90;;;12.90;50.40;;;;;;5031107;28;20286;-77